ESOK 110920Z 36012KT 9999 FEW018 01/M01 Q1018